Time;durP1;ratioP1;P1;durP2;ratioP2;P2;SDS_P1;SDS_P2;PMS_P1;PMS_P2;Temp;Humidity;BMP_temperature;BMP_pressure;BME280_temperature;BME280_humidity;BME280_pressure;Samples;Min_cycle;Max_cycle;Signal;HPM_P1;HPM_P2
2022/01/08 16:40:31;;;;;;;;;;;;;;;1.71;100.00;97982.34;6188170;23;19973;-66
2022/01/08 16:42:59;;;;;;;;;;;;;;;1.73;100.00;97985.59;6186475;23;19952;-67
2022/01/08 16:45:27;;;;;;;;;;;;;;;1.76;100.00;97984.88;6185297;23;20234;-67
2022/01/08 16:47:55;;;;;;;;;;;;;;;1.86;100.00;97978.06;6186089;23;19948;-67
2022/01/08 16:50:24;;;;;;;;;;;;;;;1.80;100.00;97983.03;6188110;23;20227;-67
2022/01/08 16:52:51;;;;;;;;;;;;;;;1.70;100.00;97974.44;6187221;23;19942;-67
2022/01/08 16:55:18;;;;;;;;;;;;;;;1.77;100.00;97966.38;6186620;23;19950;-67
2022/01/08 16:57:46;;;;;;;;;;;;;;;1.79;100.00;97970.41;6187462;23;19977;-68
2022/01/08 17:00:15;;;;;;;;;;;;;;;1.79;100.00;97972.34;6186744;23;19972;-67
2022/01/08 17:02:42;;;;;;;;;;;;;;;1.82;100.00;97966.94;6187677;23;20292;-67
2022/01/08 17:05:10;;;;;;;;;;;;;;;1.77;100.00;97969.94;6188063;23;19947;-68
2022/01/08 17:07:38;;;;;;;;;;;;;;;1.80;100.00;97972.00;6186642;23;19944;-69
2022/01/08 17:10:05;;;;;;;;;;;;;;;1.85;100.00;97969.00;6187703;23;19975;-68
2022/01/08 17:12:32;;;;;;;;;;;;;;;1.88;100.00;97968.28;6185564;23;20206;-67
2022/01/08 17:15:00;;;;;;;;;;;;;;;1.82;100.00;97969.69;6185353;23;20642;-66
2022/01/08 17:17:28;;;;;;;;;;;;;;;1.76;100.00;97965.56;6187917;23;19944;-68
2022/01/08 17:19:55;;;;;;;;;;;;;;;1.75;100.00;97966.75;6186779;23;19970;-68
2022/01/08 17:22:23;;;;;;;;;;;;;;;1.79;100.00;97967.63;6187126;23;19956;-68
2022/01/08 17:24:50;;;;;;;;;;;;;;;1.78;100.00;97968.81;6186292;23;19952;-68
2022/01/08 17:27:18;;;;;;;;;;;;;;;1.79;100.00;97969.59;6186729;23;20411;-67
2022/01/08 17:29:45;;;;;;;;;;;;;;;1.87;100.00;97961.19;6187787;23;19957;-68
2022/01/08 17:32:12;;;;;;;;;;;;;;;1.83;100.00;97963.03;6187234;23;19952;-67
2022/01/08 17:34:39;;;;;;;;;;;;;;;1.78;100.00;97951.47;6186417;23;19951;-68
2022/01/08 17:37:07;;;;;;;;;;;;;;;1.80;100.00;97955.47;6186580;23;20581;-67
2022/01/08 17:39:34;;;;;;;;;;;;;;;1.85;100.00;97946.97;6185933;23;19979;-67
2022/01/08 17:42:02;;;;;;;;;;;;;;;1.80;100.00;97949.97;6185868;23;19957;-66
2022/01/08 17:44:29;;;;;;;;;;;;;;;1.79;100.00;97955.81;6184024;23;20123;-66
2022/01/08 17:46:57;;;;;;;;;;;;;;;1.77;100.00;97958.91;6187273;23;19952;-66
2022/01/08 17:49:27;;;;;;;;;;;;;;;1.76;100.00;97959.28;6186533;23;20307;-66
2022/01/08 17:51:55;;;;;;;;;;;;;;;1.77;100.00;97955.34;6185371;23;19959;-66
2022/01/08 17:54:22;;;;;;;;;;;;;;;1.73;100.00;97966.28;6186105;23;20210;-66
2022/01/08 17:56:49;;;;;;;;;;;;;;;1.70;100.00;97958.72;6186362;23;20010;-66
2022/01/08 17:59:29;;;;;;;;;;;;;;;1.67;100.00;97953.06;6186401;23;19970;-66
2022/01/08 18:01:56;;;;;;;;;;;;;;;1.53;100.00;97960.91;6186998;23;19954;-66
2022/01/08 18:04:24;;;;;;;;;;;;;;;1.47;100.00;97957.59;6186955;23;19947;-67
2022/01/08 18:06:51;;;;;;;;;;;;;;;1.43;100.00;97964.97;6186436;23;19964;-65
2022/01/08 18:09:19;;;;;;;;;;;;;;;1.41;100.00;97963.69;6187586;23;19954;-66
2022/01/08 18:11:46;;;;;;;;;;;;;;;1.45;100.00;97965.41;6185896;23;19970;-66
2022/01/08 18:14:14;;;;;;;;;;;;;;;1.43;100.00;97967.72;6184981;23;19976;-66
2022/01/08 18:16:41;;;;;;;;;;;;;;;1.42;100.00;97971.59;6185627;23;19955;-66
2022/01/08 18:19:09;;;;;;;;;;;;;;;1.41;100.00;97978.28;6185902;23;19973;-67
2022/01/08 18:21:36;;;;;;;;;;;;;;;1.44;100.00;97968.53;6185775;23;19946;-66
2022/01/08 18:24:03;;;;;;;;;;;;;;;1.51;100.00;97966.78;6186200;23;19953;-66
2022/01/08 18:26:31;;;;;;;;;;;;;;;1.39;100.00;97969.56;6186113;23;19950;-66
2022/01/08 18:28:58;;;;;;;;;;;;;;;1.31;100.00;97964.97;6186649;23;19948;-66
2022/01/08 18:31:25;;;;;;;;;;;;;;;1.31;100.00;97959.47;6187346;23;19951;-66
2022/01/08 18:33:53;;;;;;;;;;;;;;;1.36;100.00;97944.66;6187190;23;19958;-67
2022/01/08 18:36:20;;;;;;;;;;;;;;;1.30;100.00;97944.88;6187154;23;20310;-66
2022/01/08 18:38:47;;;;;;;;;;;;;;;1.21;100.00;97957.16;6185806;23;19976;-66
2022/01/08 18:41:15;;;;;;;;;;;;;;;1.24;100.00;97951.78;6186948;23;19968;-66
2022/01/08 18:43:42;;;;;;;;;;;;;;;1.39;100.00;97942.00;6184705;23;19952;-68
2022/01/08 18:46:10;;;;;;;;;;;;;;;1.39;100.00;97938.44;6186158;23;19955;-66
2022/01/08 18:48:38;;;;;;;;;;;;;;;1.33;100.00;97949.69;6184065;23;20297;-66
2022/01/08 18:51:05;;;;;;;;;;;;;;;1.44;100.00;97952.81;6185883;23;19980;-66
2022/01/08 18:53:33;;;;;;;;;;;;;;;1.49;100.00;97949.81;6186539;23;19946;-66
2022/01/08 18:56:00;;;;;;;;;;;;;;;1.54;100.00;97957.81;6185845;23;20337;-67
2022/01/08 18:58:27;;;;;;;;;;;;;;;1.57;100.00;97962.63;6185833;23;19951;-67
2022/01/08 19:00:55;;;;;;;;;;;;;;;1.54;100.00;97957.03;6186358;23;19978;-67
2022/01/08 19:03:22;;;;;;;;;;;;;;;1.46;100.00;97967.03;6185565;23;19979;-67
2022/01/08 19:05:49;;;;;;;;;;;;;;;1.46;100.00;97966.22;6185963;23;19951;-67
2022/01/08 19:08:17;;;;;;;;;;;;;;;1.49;100.00;97960.03;6186151;23;19952;-67
2022/01/08 19:10:44;;;;;;;;;;;;;;;1.52;100.00;97960.13;6186504;23;19945;-67
2022/01/08 19:13:12;;;;;;;;;;;;;;;1.50;100.00;97961.59;6184565;23;19948;-67
2022/01/08 19:15:39;;;;;;;;;;;;;;;1.54;100.00;97966.06;6184375;23;19953;-67
2022/01/08 19:18:06;;;;;;;;;;;;;;;1.52;100.00;97957.34;6186093;23;19953;-67
2022/01/08 19:20:34;;;;;;;;;;;;;;;1.46;100.00;97946.94;6185975;23;20230;-67
2022/01/08 19:23:01;;;;;;;;;;;;;;;1.45;100.00;97945.31;6185649;23;20321;-67
2022/01/08 19:25:32;;;;;;;;;;;;;;;1.30;100.00;97938.56;6186092;23;19945;-67
2022/01/08 19:27:59;;;;;;;;;;;;;;;1.10;100.00;97940.28;6185947;23;19951;-67
2022/01/08 19:30:27;;;;;;;;;;;;;;;1.06;100.00;97933.06;6186032;23;19947;-67
2022/01/08 19:32:54;;;;;;;;;;;;;;;1.10;100.00;97942.28;6186190;23;19946;-67
2022/01/08 19:35:21;;;;;;;;;;;;;;;1.10;100.00;97942.28;6186131;23;19953;-67
2022/01/08 19:37:49;;;;;;;;;;;;;;;1.14;100.00;97946.75;6185781;23;20282;-67
2022/01/08 19:40:16;;;;;;;;;;;;;;;1.20;100.00;97952.78;6185607;23;19980;-67
2022/01/08 19:42:43;;;;;;;;;;;;;;;1.30;100.00;97949.59;6185438;23;19950;-67
2022/01/08 19:45:11;;;;;;;;;;;;;;;1.42;100.00;97930.28;6182269;23;19949;-67
2022/01/08 19:47:39;;;;;;;;;;;;;;;1.38;100.00;97926.63;6184753;23;19949;-67
2022/01/08 19:50:07;;;;;;;;;;;;;;;1.24;100.00;97929.75;6185398;23;19946;-68
2022/01/08 19:52:35;;;;;;;;;;;;;;;1.08;100.00;97933.53;6185258;23;19951;-67
2022/01/08 19:55:03;;;;;;;;;;;;;;;1.09;100.00;97937.91;6186941;23;19947;-67
2022/01/08 19:57:31;;;;;;;;;;;;;;;1.25;100.00;97936.03;6185864;23;19957;-69
2022/01/08 20:00:00;;;;;;;;;;;;;;;1.31;100.00;97937.44;6186658;23;19969;-68
2022/01/08 20:02:27;;;;;;;;;;;;;;;1.44;100.00;97924.44;6183716;23;19955;-68
2022/01/08 20:04:54;;;;;;;;;;;;;;;1.38;100.00;97932.13;6186078;23;19958;-68
2022/01/08 20:07:25;;;;;;;;;;;;;;;1.43;100.00;97931.91;6185156;23;19944;-68
2022/01/08 20:09:53;;;;;;;;;;;;;;;1.44;100.00;97933.50;6185537;23;19956;-68
2022/01/08 20:12:22;;;;;;;;;;;;;;;1.37;100.00;97918.72;6183671;23;20352;-68
2022/01/08 20:14:49;;;;;;;;;;;;;;;1.25;100.00;97933.28;6185179;23;19936;-68
2022/01/08 20:17:17;;;;;;;;;;;;;;;1.27;100.00;97936.53;6186691;23;19952;-68
2022/01/08 20:19:44;;;;;;;;;;;;;;;1.31;100.00;97924.47;6185319;23;19954;-69
2022/01/08 20:22:11;;;;;;;;;;;;;;;1.33;100.00;97932.38;6185970;23;20293;-68
2022/01/08 20:24:39;;;;;;;;;;;;;;;1.37;100.00;97930.53;6185936;23;19941;-69
2022/01/08 20:27:06;;;;;;;;;;;;;;;1.44;100.00;97927.19;6185490;23;19946;-69
2022/01/08 20:29:34;;;;;;;;;;;;;;;1.39;100.00;97928.25;6185282;23;19946;-69
2022/01/08 20:32:01;;;;;;;;;;;;;;;1.35;100.00;97921.81;6186728;23;19951;-69
2022/01/08 20:34:29;;;;;;;;;;;;;;;1.41;100.00;97916.88;6186014;23;20317;-67
2022/01/08 20:36:56;;;;;;;;;;;;;;;1.40;100.00;97918.00;6185104;23;19977;-67
2022/01/08 20:39:24;;;;;;;;;;;;;;;1.28;100.00;97918.84;6185465;23;19974;-66
2022/01/08 20:41:51;;;;;;;;;;;;;;;1.19;100.00;97923.66;6184965;23;19970;-66
2022/01/08 20:44:19;;;;;;;;;;;;;;;1.23;100.00;97921.81;6184362;23;20404;-67
2022/01/08 20:46:47;;;;;;;;;;;;;;;1.14;100.00;97916.44;6185188;23;20476;-66
2022/01/08 20:49:15;;;;;;;;;;;;;;;1.03;100.00;97901.53;6185225;23;19954;-67
2022/01/08 20:51:42;;;;;;;;;;;;;;;1.06;100.00;97894.53;6184714;23;19950;-67
2022/01/08 20:54:10;;;;;;;;;;;;;;;0.95;100.00;97887.91;6185835;23;19962;-67
2022/01/08 20:56:38;;;;;;;;;;;;;;;0.82;100.00;97889.03;6186666;23;19947;-67
2022/01/08 20:59:06;;;;;;;;;;;;;;;0.77;100.00;97889.28;6185519;23;19959;-67
2022/01/08 21:01:33;;;;;;;;;;;;;;;0.83;100.00;97888.72;6185257;23;20585;-66
2022/01/08 21:04:04;;;;;;;;;;;;;;;0.76;100.00;97887.69;6186479;23;19953;-66
2022/01/08 21:06:31;;;;;;;;;;;;;;;0.71;100.00;97891.44;6184976;23;20215;-66
2022/01/08 21:08:59;;;;;;;;;;;;;;;0.74;100.00;97887.19;6185401;23;19957;-67
2022/01/08 21:11:26;;;;;;;;;;;;;;;0.58;100.00;97884.34;6184405;23;20303;-67
2022/01/08 21:13:54;;;;;;;;;;;;;;;0.41;100.00;97873.56;6186252;23;19954;-67
2022/01/08 21:16:21;;;;;;;;;;;;;;;0.35;100.00;97880.41;6186242;23;19948;-66
2022/01/08 21:18:49;;;;;;;;;;;;;;;0.34;100.00;97887.84;6187318;23;20209;-66
2022/01/08 21:21:16;;;;;;;;;;;;;;;0.38;100.00;97888.78;6186813;23;20448;-67
2022/01/08 21:23:43;;;;;;;;;;;;;;;0.44;100.00;97892.91;6187267;23;20304;-67
2022/01/08 21:26:10;;;;;;;;;;;;;;;0.48;100.00;97891.09;6186688;23;19986;-66
2022/01/08 21:28:38;;;;;;;;;;;;;;;0.59;100.00;97884.00;6161991;23;20239;-66
2022/01/08 21:31:05;;;;;;;;;;;;;;;0.42;100.00;97886.97;6186576;23;19945;-67
2022/01/08 21:33:35;;;;;;;;;;;;;;;0.34;100.00;97876.06;6187108;23;20331;-67
2022/01/08 21:36:05;;;;;;;;;;;;;;;0.34;100.00;97874.09;6186512;23;19947;-67
2022/01/08 21:38:36;;;;;;;;;;;;;;;0.36;100.00;97868.28;6187143;23;19992;-67
2022/01/08 21:41:04;;;;;;;;;;;;;;;0.24;100.00;97865.50;6186508;23;20024;-67
2022/01/08 21:43:32;;;;;;;;;;;;;;;0.24;100.00;97860.81;6185458;23;19966;-67
2022/01/08 21:46:00;;;;;;;;;;;;;;;0.03;100.00;97845.53;6186887;23;19962;-66
2022/01/08 21:48:30;;;;;;;;;;;;;;;-0.08;100.00;97839.66;6187220;23;20274;-66
2022/01/08 21:50:58;;;;;;;;;;;;;;;-0.14;100.00;97839.09;6186449;23;19924;-68
2022/01/08 21:53:26;;;;;;;;;;;;;;;-0.12;100.00;97831.28;6187885;23;19924;-68
2022/01/08 21:55:53;;;;;;;;;;;;;;;-0.13;100.00;97824.22;6186404;23;19969;-67
